createdAt,value
2022-08-19T00:03:10.453Z,20.83
2022-08-19T00:08:18.149Z,20.81
2022-08-19T00:13:22.038Z,20.81
2022-08-19T00:18:25.927Z,20.82
2022-08-19T00:23:29.910Z,20.81
2022-08-19T00:28:34.718Z,20.76
2022-08-19T00:33:39.781Z,20.72
2022-08-19T00:38:44.841Z,20.70
2022-08-19T00:44:12.371Z,20.68
2022-08-19T00:49:31.027Z,20.64
2022-08-19T00:54:38.073Z,20.58
2022-08-19T01:00:00.499Z,20.55
2022-08-19T01:05:19.699Z,20.45
2022-08-19T01:10:29.412Z,20.32
2022-08-19T01:15:47.773Z,20.18
2022-08-19T01:20:53.749Z,20.02
2022-08-19T01:25:57.806Z,19.97
2022-08-19T01:31:08.021Z,19.86
2022-08-19T01:36:17.394Z,19.79
2022-08-19T01:41:20.912Z,19.80
2022-08-19T01:46:25.215Z,19.75
2022-08-19T01:51:29.935Z,19.71
2022-08-19T01:56:43.248Z,19.69
2022-08-19T02:01:46.961Z,19.59
2022-08-19T02:06:50.597Z,19.52
2022-08-19T02:11:54.954Z,19.46
2022-08-19T02:17:00.868Z,19.44
2022-08-19T02:22:05.176Z,19.46
2022-08-19T02:27:08.858Z,19.51
2022-08-19T02:32:13.158Z,19.61
2022-08-19T02:37:36.448Z,19.77
2022-08-19T02:42:42.261Z,19.99
2022-08-19T02:47:45.722Z,20.16
2022-08-19T02:52:49.614Z,20.25
2022-08-19T02:57:53.223Z,20.32
2022-08-19T03:02:57.413Z,20.44
2022-08-19T03:08:01.882Z,20.56
2022-08-19T03:13:06.367Z,20.65
2022-08-19T03:18:11.089Z,20.72
2022-08-19T03:23:18.583Z,20.79
2022-08-19T03:28:22.741Z,20.88
2022-08-19T03:33:29.898Z,20.93
2022-08-19T03:38:35.050Z,20.95
2022-08-19T03:43:41.199Z,21.01
2022-08-19T03:48:46.957Z,21.09
2022-08-19T03:53:51.571Z,21.21
2022-08-19T03:58:58.892Z,21.32
2022-08-19T04:04:04.902Z,21.47
2022-08-19T04:09:12.099Z,21.58
2022-08-19T04:14:21.169Z,21.69
2022-08-19T04:19:26.923Z,21.76
2022-08-19T04:24:32.498Z,21.88
2022-08-19T04:29:36.045Z,22.01
2022-08-19T04:35:03.192Z,22.11
2022-08-19T04:40:27.586Z,22.27
2022-08-19T04:45:36.271Z,22.38
2022-08-19T04:50:48.522Z,22.45
2022-08-19T04:55:53.723Z,22.49
2022-08-19T05:01:01.351Z,22.53
2022-08-19T05:06:11.850Z,22.61
2022-08-19T05:11:26.739Z,22.72
2022-08-19T05:16:30.906Z,22.86
2022-08-19T05:21:54.675Z,22.98
2022-08-19T05:26:58.541Z,23.17
2022-08-19T05:32:07.082Z,23.45
2022-08-19T05:37:13.691Z,24.32
2022-08-19T05:42:18.013Z,25.26
2022-08-19T05:47:25.494Z,25.27
2022-08-19T05:52:30.738Z,25.35
2022-08-19T05:57:35.773Z,25.38
2022-08-19T06:02:40.481Z,25.39
2022-08-19T06:07:44.722Z,25.34
2022-08-19T06:12:50.348Z,25.28
2022-08-19T06:17:55.263Z,25.23
2022-08-19T06:23:00.820Z,25.24
2022-08-19T06:28:15.030Z,25.38
2022-08-19T06:33:27.534Z,25.44
2022-08-19T06:38:32.449Z,25.43
2022-08-19T06:43:43.025Z,25.42
2022-08-19T06:48:48.746Z,25.49
2022-08-19T06:53:55.711Z,25.96
2022-08-19T06:59:01.465Z,26.64
2022-08-19T07:04:12.328Z,27.21
2022-08-19T07:09:18.632Z,27.71
2022-08-19T07:14:28.512Z,28.33
2022-08-19T07:19:32.958Z,28.72
2022-08-19T07:24:39.160Z,28.86
2022-08-19T07:29:57.314Z,29.22
2022-08-19T07:35:01.871Z,29.33
2022-08-19T07:40:08.336Z,29.26
2022-08-19T07:45:12.146Z,29.04
2022-08-19T07:50:21.333Z,29.13
2022-08-19T07:55:41.739Z,29.39
2022-08-19T08:00:49.922Z,29.73
2022-08-19T08:06:12.106Z,30.13
2022-08-19T08:11:20.009Z,30.47
2022-08-19T08:16:26.667Z,30.69
2022-08-19T08:21:31.543Z,31.00
2022-08-19T08:26:36.194Z,31.07
2022-08-19T08:31:44.065Z,31.19
2022-08-19T08:36:48.447Z,31.37
2022-08-19T08:42:10.006Z,31.43
2022-08-19T08:47:24.449Z,31.63
2022-08-19T08:52:36.517Z,31.76
2022-08-19T08:57:44.250Z,31.86
2022-08-19T09:02:50.764Z,32.04
2022-08-19T09:08:06.335Z,32.32
2022-08-19T09:13:10.142Z,32.11
2022-08-19T09:18:19.110Z,32.11
2022-08-19T09:23:26.612Z,32.20
2022-08-19T09:28:32.933Z,32.37
2022-08-19T09:33:37.295Z,32.74
2022-08-19T09:38:43.491Z,32.85
2022-08-19T09:43:53.468Z,33.07
2022-08-19T09:49:03.050Z,33.13
2022-08-19T09:54:11.642Z,33.39
2022-08-19T09:59:16.426Z,33.39
2022-08-19T10:04:43.453Z,33.44
2022-08-19T10:09:49.173Z,33.56
2022-08-19T10:14:55.169Z,33.64
2022-08-19T10:20:00.269Z,33.59
2022-08-19T10:25:05.859Z,33.64
2022-08-19T10:30:11.290Z,33.62
2022-08-19T10:35:21.803Z,33.58
2022-08-19T10:40:29.723Z,33.56
2022-08-19T10:45:33.247Z,33.57
2022-08-19T10:50:56.350Z,33.75
2022-08-19T10:56:18.545Z,33.89
2022-08-19T11:01:22.255Z,33.82
2022-08-19T11:06:26.924Z,33.83
2022-08-19T11:11:34.122Z,33.98
2022-08-19T11:16:43.850Z,34.09
2022-08-19T11:21:48.629Z,34.05
2022-08-19T11:27:00.360Z,34.24
2022-08-19T11:32:10.267Z,34.29
2022-08-19T11:37:14.008Z,34.40
2022-08-19T11:42:38.342Z,34.22
2022-08-19T11:47:41.777Z,34.10
2022-08-19T11:52:46.534Z,34.15
2022-08-19T11:57:50.184Z,34.16
2022-08-19T12:02:53.958Z,34.10
2022-08-19T12:07:57.544Z,34.11
2022-08-19T12:13:01.170Z,33.91
2022-08-19T12:18:10.719Z,33.70
2022-08-19T12:23:15.357Z,33.72
2022-08-19T12:28:24.774Z,33.59
2022-08-19T12:33:30.085Z,33.54
2022-08-19T12:38:35.554Z,33.66
2022-08-19T12:43:42.667Z,33.60
2022-08-19T12:48:46.658Z,33.48
2022-08-19T12:53:51.311Z,33.27
2022-08-19T12:58:55.489Z,33.33
2022-08-19T13:03:58.812Z,33.63
2022-08-19T13:09:01.895Z,33.92
2022-08-19T13:14:06.546Z,34.01
2022-08-19T13:19:11.981Z,33.74
2022-08-19T13:24:15.917Z,33.53
2022-08-19T13:29:38.241Z,33.35
2022-08-19T13:34:48.223Z,33.20
2022-08-19T13:39:51.820Z,33.03
2022-08-19T13:44:55.861Z,33.04
2022-08-19T13:49:59.727Z,33.08
2022-08-19T13:55:03.616Z,33.27
2022-08-19T14:00:12.023Z,33.17
2022-08-19T14:05:17.543Z,33.12
2022-08-19T14:10:22.293Z,33.06
2022-08-19T14:15:27.030Z,33.04
2022-08-19T14:20:31.185Z,33.03
2022-08-19T14:25:35.189Z,33.00
2022-08-19T14:30:39.061Z,33.16
2022-08-19T14:35:47.043Z,33.15
2022-08-19T14:40:51.013Z,32.90
2022-08-19T14:45:55.051Z,32.68
2022-08-19T14:50:58.462Z,32.47
2022-08-19T14:56:02.561Z,32.37
2022-08-19T15:01:06.438Z,32.34
2022-08-19T15:06:12.830Z,32.25
2022-08-19T15:11:21.718Z,32.13
2022-08-19T15:16:26.865Z,31.97
2022-08-19T15:21:31.305Z,31.80
2022-08-19T15:26:34.819Z,31.70
2022-08-19T15:31:39.012Z,31.66
2022-08-19T15:36:42.856Z,31.69
2022-08-19T15:41:47.512Z,31.71
2022-08-19T15:46:51.874Z,31.69
2022-08-19T15:51:58.848Z,31.66
2022-08-19T15:57:20.979Z,31.61
2022-08-19T16:02:48.533Z,31.54
2022-08-19T16:07:57.624Z,31.44
2022-08-19T16:13:06.679Z,31.28
2022-08-19T16:18:10.921Z,31.13
2022-08-19T16:23:14.447Z,30.97
2022-08-19T16:28:18.748Z,30.85
2022-08-19T16:33:23.180Z,30.73
2022-08-19T16:38:28.498Z,30.57
2022-08-19T16:43:32.643Z,30.48
2022-08-19T16:48:40.303Z,30.36
2022-08-19T16:53:45.400Z,30.22
2022-08-19T16:58:50.850Z,30.07
2022-08-19T17:03:56.274Z,29.97
2022-08-19T17:09:02.322Z,29.85
2022-08-19T17:14:08.892Z,29.71
2022-08-19T17:19:13.486Z,29.56
2022-08-19T17:24:18.350Z,29.40
2022-08-19T17:29:22.572Z,29.11
2022-08-19T17:34:27.803Z,28.83
2022-08-19T17:39:32.103Z,28.71
2022-08-19T17:44:50.727Z,28.60
2022-08-19T17:49:55.432Z,28.45
2022-08-19T17:54:59.340Z,28.25
2022-08-19T18:00:05.523Z,28.15
2022-08-19T18:05:13.771Z,28.07
2022-08-19T18:10:17.825Z,27.95
2022-08-19T18:15:23.162Z,27.76
2022-08-19T18:20:26.551Z,27.61
2022-08-19T18:25:30.238Z,27.38
2022-08-19T18:30:35.333Z,27.20
2022-08-19T18:35:39.878Z,27.10
2022-08-19T18:41:03.312Z,27.03
2022-08-19T18:46:45.259Z,26.96
2022-08-19T18:51:48.536Z,26.95
2022-08-19T18:56:56.072Z,26.95
2022-08-19T19:02:02.853Z,26.99
2022-08-19T19:07:07.360Z,27.02
2022-08-19T19:12:14.881Z,26.99
2022-08-19T19:17:27.704Z,26.87
2022-08-19T19:22:32.300Z,26.56
2022-08-19T19:27:37.172Z,26.23
2022-08-19T19:32:42.861Z,26.01
2022-08-19T19:37:53.390Z,25.77
2022-08-19T19:42:57.910Z,25.49
2022-08-19T19:48:01.730Z,25.13
2022-08-19T19:53:06.797Z,24.83
2022-08-19T19:58:10.792Z,24.68
2022-08-19T20:03:18.561Z,24.50
2022-08-19T20:08:43.182Z,24.33
2022-08-19T20:13:47.969Z,24.19
2022-08-19T20:18:52.992Z,23.95
2022-08-19T20:24:09.884Z,23.83
2022-08-19T20:29:37.996Z,23.70
2022-08-19T20:34:42.655Z,23.61
2022-08-19T20:39:47.810Z,23.67
2022-08-19T20:44:52.102Z,23.74
2022-08-19T20:49:57.280Z,23.73
2022-08-19T20:55:02.020Z,23.70
2022-08-19T21:00:11.508Z,23.64
2022-08-19T21:05:15.791Z,23.57
2022-08-19T21:10:23.337Z,23.51
2022-08-19T21:15:27.797Z,23.49
2022-08-19T21:20:31.919Z,23.28
2022-08-19T21:25:36.678Z,23.05
2022-08-19T21:30:42.323Z,22.99
2022-08-19T21:35:46.132Z,23.01
2022-08-19T21:40:50.890Z,22.98
2022-08-19T21:45:56.350Z,23.04
2022-08-19T21:51:00.778Z,23.01
2022-08-19T21:56:08.825Z,22.98
2022-08-19T22:01:13.764Z,22.98
2022-08-19T22:06:18.436Z,22.85
2022-08-19T22:11:26.577Z,22.74
2022-08-19T22:16:30.043Z,22.65
2022-08-19T22:21:40.491Z,22.60
2022-08-19T22:26:45.455Z,22.57
2022-08-19T22:31:54.534Z,22.60
2022-08-19T22:37:03.283Z,22.67
2022-08-19T22:42:08.353Z,22.75
2022-08-19T22:47:13.142Z,22.79
2022-08-19T22:52:21.421Z,22.81
2022-08-19T22:57:25.754Z,22.84
2022-08-19T23:02:38.765Z,22.90
2022-08-19T23:07:57.786Z,22.92
2022-08-19T23:13:03.203Z,22.90
2022-08-19T23:18:07.871Z,22.67
2022-08-19T23:23:19.889Z,22.62
2022-08-19T23:28:42.990Z,22.72
2022-08-19T23:33:51.469Z,22.83
2022-08-19T23:38:58.919Z,22.81
2022-08-19T23:44:03.925Z,22.80
2022-08-19T23:49:09.211Z,22.74
2022-08-19T23:54:12.623Z,22.64
2022-08-19T23:59:18.922Z,22.70
